Main page
METAR-TAF:

METAR-TAF

Airports :

Brooks County Airport

Falfurrias, Texas, United States

latitude: 27-12-24N, longitude: 098-07-16W, elevation: 112 ft

Current weather observation

The report was made 10 minutes ago, at 13:35 UTC
Wind 16 mph from the Southeast with gusts up to 21 mph
Temperature 82°F
Humidity 79%
Pressure 29.80 in. Hg
Visibility: 5 miles
Broken clouds at a height of 1300 ft
Broken clouds at a height of 1900 ft

METAR: KBKS 201335Z AUTO 13014G18KT 5SM BKN013 BKN019 28/24 A2980 RMK AO1 T02780240

Time: 08:45 (13:45 UTC)


TAF: missing

Weather observations and forecasts of more than 4000 airports (METAR and TAF reports).

The available stations are represented by yellow and red dots on the map.

Hover mouse over dot to see the name of the station.

Then click to see weather observations and forecasts.

To change the map : click on the green buttons with a black cross to zoom in, on the green button with a dash to zoom out, or on the green arrows for adjacent maps.


METAR-TAF: